createdAt,value
2022-12-09T00:02:49.688Z,70.10
2022-12-09T00:07:56.085Z,70.10
2022-12-09T00:12:59.982Z,70.10
2022-12-09T00:18:03.564Z,70.10
2022-12-09T00:23:08.374Z,70.10
2022-12-09T00:28:12.315Z,70.10
2022-12-09T00:33:15.987Z,70.10
2022-12-09T00:38:23.346Z,70.20
2022-12-09T00:43:27.167Z,70.30
2022-12-09T00:48:31.229Z,70.30
2022-12-09T00:53:36.314Z,70.40
2022-12-09T00:58:40.030Z,70.50
2022-12-09T01:03:44.293Z,70.50
2022-12-09T01:08:50.754Z,70.50
2022-12-09T01:13:57.700Z,70.50
2022-12-09T01:19:03.154Z,70.60
2022-12-09T01:24:10.869Z,70.60
2022-12-09T01:29:14.830Z,70.50
2022-12-09T01:34:18.718Z,70.60
2022-12-09T01:39:23.513Z,70.60
2022-12-09T01:44:27.979Z,70.50
2022-12-09T01:49:35.666Z,70.50
2022-12-09T01:54:42.680Z,70.50
2022-12-09T01:59:46.670Z,70.50
2022-12-09T02:04:51.708Z,70.60
2022-12-09T02:09:56.605Z,70.70
2022-12-09T02:15:04.633Z,70.50
2022-12-09T02:20:16.828Z,70.50
2022-12-09T02:25:29.037Z,70.60
2022-12-09T02:30:38.455Z,70.50
2022-12-09T02:35:49.839Z,70.40
2022-12-09T02:40:59.117Z,70.30
2022-12-09T02:46:04.238Z,70.30
2022-12-09T02:51:13.553Z,70.30
2022-12-09T02:56:18.652Z,70.30
2022-12-09T03:01:24.278Z,70.40
2022-12-09T03:06:36.172Z,70.30
2022-12-09T03:11:41.450Z,70.40
2022-12-09T03:16:51.898Z,70.40
2022-12-09T03:21:59.824Z,70.40
2022-12-09T03:27:09.146Z,70.40
2022-12-09T03:32:16.344Z,70.50
2022-12-09T03:37:22.523Z,70.60
2022-12-09T03:42:37.026Z,70.60
2022-12-09T03:47:40.900Z,70.70
2022-12-09T03:52:51.086Z,70.70
2022-12-09T03:57:57.613Z,70.80
2022-12-09T04:03:02.102Z,70.80
2022-12-09T04:08:08.234Z,70.80
2022-12-09T04:13:12.487Z,70.80
2022-12-09T04:18:16.238Z,70.80
2022-12-09T04:23:21.635Z,70.80
2022-12-09T04:28:24.996Z,70.90
2022-12-09T04:33:28.890Z,70.90
2022-12-09T04:38:33.893Z,70.70
2022-12-09T04:43:39.518Z,70.90
2022-12-09T04:48:43.326Z,70.80
2022-12-09T04:53:48.729Z,70.90
2022-12-09T04:58:52.622Z,70.70
2022-12-09T05:03:56.862Z,70.80
2022-12-09T05:09:02.758Z,70.80
2022-12-09T05:14:06.679Z,70.70
2022-12-09T05:19:11.350Z,70.70
2022-12-09T05:24:16.705Z,70.80
2022-12-09T05:29:23.113Z,70.90
2022-12-09T05:34:27.486Z,71.20
2022-12-09T05:39:32.760Z,71.20
2022-12-09T05:44:36.850Z,71.30
2022-12-09T05:49:40.800Z,72.20
2022-12-09T05:54:46.031Z,71.60
2022-12-09T05:59:51.965Z,71.60
2022-12-09T06:04:56.152Z,71.60
2022-12-09T06:10:02.138Z,71.50
2022-12-09T06:15:09.815Z,71.60
2022-12-09T06:20:15.701Z,71.60
2022-12-09T06:25:21.590Z,71.90
2022-12-09T06:30:25.290Z,72.10
2022-12-09T06:35:29.297Z,72.30
2022-12-09T06:40:34.178Z,72.40
2022-12-09T06:45:38.377Z,72.70
2022-12-09T06:50:42.795Z,72.90
2022-12-09T06:55:48.785Z,72.80
2022-12-09T07:00:52.496Z,72.60
2022-12-09T07:05:56.563Z,72.60
2022-12-09T07:11:02.728Z,72.60
2022-12-09T07:16:07.080Z,72.50
2022-12-09T07:21:12.613Z,72.60
2022-12-09T07:26:18.369Z,72.60
2022-12-09T07:31:25.192Z,72.50
2022-12-09T07:36:30.459Z,72.40
2022-12-09T07:41:35.981Z,72.30
2022-12-09T07:46:40.855Z,72.30
2022-12-09T07:51:45.237Z,72.20
2022-12-09T07:56:50.191Z,72.50
2022-12-09T08:01:54.258Z,72.60
2022-12-09T08:06:57.887Z,72.80
2022-12-09T08:12:02.899Z,72.60
2022-12-09T08:17:06.552Z,72.60
2022-12-09T08:22:10.113Z,72.50
2022-12-09T08:27:15.510Z,72.70
2022-12-09T08:32:19.439Z,72.60
2022-12-09T08:37:23.049Z,72.60
2022-12-09T08:42:31.218Z,72.80
2022-12-09T08:47:34.805Z,72.90
2022-12-09T08:52:40.693Z,73.10
2022-12-09T08:57:46.497Z,73.10
2022-12-09T09:02:50.403Z,73.10
2022-12-09T09:07:54.457Z,73.30
2022-12-09T09:13:00.267Z,73.20
2022-12-09T09:18:03.854Z,73.30
2022-12-09T09:23:07.659Z,73.40
2022-12-09T09:28:13.000Z,73.60
2022-12-09T09:33:17.838Z,73.60
2022-12-09T09:38:21.909Z,73.50
2022-12-09T09:43:29.098Z,73.50
2022-12-09T09:48:35.075Z,73.60
2022-12-09T09:53:39.067Z,73.40
2022-12-09T09:58:50.319Z,73.30
2022-12-09T10:04:01.682Z,73.10
2022-12-09T10:09:11.526Z,72.80
2022-12-09T10:14:22.553Z,72.30
2022-12-09T10:19:31.997Z,72.10
2022-12-09T10:24:40.516Z,72.20
2022-12-09T10:29:56.659Z,72.20
2022-12-09T10:35:01.200Z,72.10
2022-12-09T10:40:20.400Z,71.90
2022-12-09T10:45:29.268Z,71.90
2022-12-09T10:50:43.833Z,71.80
2022-12-09T10:55:55.523Z,71.80
2022-12-09T11:01:07.239Z,71.30
2022-12-09T11:06:22.187Z,71.20
2022-12-09T11:11:45.384Z,70.50
2022-12-09T11:16:51.946Z,70.40
2022-12-09T11:22:16.090Z,70.00
2022-12-09T11:27:27.388Z,69.50
2022-12-09T11:32:33.123Z,69.20
2022-12-09T11:37:40.088Z,69.30
2022-12-09T11:42:50.723Z,69.10
2022-12-09T11:53:31.125Z,68.00
2022-12-09T11:58:40.711Z,68.10
2022-12-09T12:03:48.838Z,68.20
2022-12-09T12:09:00.137Z,68.00
2022-12-09T12:14:07.678Z,67.40
2022-12-09T12:19:18.717Z,67.00
2022-12-09T12:25:00.175Z,67.20
2022-12-09T12:30:07.685Z,67.30
2022-12-09T12:35:26.864Z,67.50
2022-12-09T12:40:38.807Z,65.80
2022-12-09T12:46:09.533Z,66.10
2022-12-09T12:51:25.667Z,66.00
2022-12-09T12:56:35.476Z,66.70
2022-12-09T13:01:51.965Z,66.90
2022-12-09T13:07:02.998Z,66.40
2022-12-09T13:12:12.750Z,65.80
2022-12-09T13:17:16.259Z,65.70
2022-12-09T13:22:23.734Z,66.40
2022-12-09T13:27:34.712Z,66.50
2022-12-09T13:33:02.612Z,66.40
2022-12-09T13:38:26.770Z,66.40
2022-12-09T13:43:33.845Z,66.70
2022-12-09T13:48:48.683Z,66.50
2022-12-09T13:54:02.407Z,66.40
2022-12-09T13:59:37.966Z,66.40
2022-12-09T14:04:51.715Z,66.50
2022-12-09T14:09:58.557Z,66.50
2022-12-09T14:15:03.176Z,66.60
2022-12-09T14:20:19.574Z,66.70
2022-12-09T14:25:59.415Z,66.60
2022-12-09T14:31:08.384Z,66.50
2022-12-09T14:36:27.663Z,66.70
2022-12-09T14:41:38.093Z,66.70
2022-12-09T14:46:43.516Z,66.70
2022-12-09T14:51:49.992Z,66.50
2022-12-09T14:56:58.717Z,66.70
2022-12-09T15:02:04.266Z,66.70
2022-12-09T15:07:13.181Z,66.60
2022-12-09T15:12:18.721Z,66.70
2022-12-09T15:17:26.053Z,66.70
2022-12-09T15:22:32.913Z,66.70
2022-12-09T15:27:37.700Z,66.70
2022-12-09T15:32:41.253Z,66.70
2022-12-09T15:37:45.682Z,66.70
2022-12-09T15:42:54.196Z,66.80
2022-12-09T15:48:02.702Z,66.90
2022-12-09T15:53:14.743Z,67.00
2022-12-09T15:58:27.190Z,67.20
2022-12-09T16:03:33.377Z,67.40
2022-12-09T16:08:39.128Z,67.70
2022-12-09T16:13:59.298Z,67.80
2022-12-09T16:19:02.701Z,68.00
2022-12-09T16:24:13.128Z,67.90
2022-12-09T16:29:25.178Z,68.10
2022-12-09T16:34:29.158Z,68.40
2022-12-09T16:39:35.111Z,68.40
2022-12-09T16:44:40.601Z,68.80
2022-12-09T16:49:47.144Z,68.90
2022-12-09T16:54:51.266Z,68.90
2022-12-09T16:59:56.032Z,69.10
2022-12-09T17:05:00.555Z,69.20
2022-12-09T17:10:04.025Z,69.20
2022-12-09T17:15:10.797Z,69.10
2022-12-09T17:20:14.712Z,69.40
2022-12-09T17:25:18.632Z,69.40
2022-12-09T17:30:23.539Z,69.60
2022-12-09T17:35:27.521Z,69.80
2022-12-09T17:40:30.919Z,69.90
2022-12-09T17:45:41.939Z,69.90
2022-12-09T17:50:46.267Z,70.20
2022-12-09T17:55:49.654Z,70.60
2022-12-09T18:00:54.511Z,70.90
2022-12-09T18:05:59.774Z,71.00
2022-12-09T18:11:04.732Z,71.20
2022-12-09T18:16:11.803Z,71.30
2022-12-09T18:21:16.211Z,71.30
2022-12-09T18:26:23.466Z,71.20
2022-12-09T18:31:30.635Z,71.30
2022-12-09T18:36:34.181Z,71.50
2022-12-09T18:41:37.534Z,71.70
2022-12-09T18:46:45.990Z,71.60
2022-12-09T18:51:51.179Z,72.50
2022-12-09T18:56:55.720Z,71.40
2022-12-09T19:02:00.533Z,71.60
2022-12-09T19:07:03.912Z,71.60
2022-12-09T19:12:44.782Z,71.70
2022-12-09T19:17:33.358Z,71.60
2022-12-09T19:22:36.773Z,71.80
2022-12-09T19:27:40.896Z,71.70
2022-12-09T19:32:53.724Z,71.90
2022-12-09T19:38:01.239Z,71.80
2022-12-09T19:43:05.370Z,72.60
2022-12-09T19:48:10.433Z,71.50
2022-12-09T19:53:13.940Z,71.50
2022-12-09T19:58:17.776Z,71.50
2022-12-09T20:03:22.662Z,71.60
2022-12-09T20:08:26.246Z,71.70
2022-12-09T20:13:31.967Z,71.90
2022-12-09T20:18:37.737Z,72.10
2022-12-09T20:23:42.871Z,72.20
2022-12-09T20:28:48.551Z,72.30
2022-12-09T20:33:56.177Z,72.50
2022-12-09T20:39:01.984Z,72.40
2022-12-09T20:44:05.891Z,72.50
2022-12-09T20:49:11.123Z,72.40
2022-12-09T20:54:14.813Z,72.60
2022-12-09T20:59:18.343Z,72.80
2022-12-09T21:04:23.360Z,72.90
2022-12-09T21:09:29.149Z,73.00
2022-12-09T21:14:36.111Z,73.00
2022-12-09T21:19:41.164Z,73.20
2022-12-09T21:24:44.591Z,73.20
2022-12-09T21:29:48.597Z,73.20
2022-12-09T21:34:55.508Z,73.60
2022-12-09T21:39:58.897Z,73.60
2022-12-09T21:45:02.489Z,73.50
2022-12-09T21:50:08.771Z,73.40
2022-12-09T21:55:12.308Z,73.20
2022-12-09T22:00:16.776Z,73.10
2022-12-09T22:05:22.040Z,73.20
2022-12-09T22:10:25.688Z,73.20
2022-12-09T22:15:29.527Z,73.20
2022-12-09T22:25:59.589Z,73.40
2022-12-09T22:31:03.262Z,73.50
2022-12-09T22:36:11.360Z,73.50
2022-12-09T22:41:16.428Z,73.60
2022-12-09T22:46:22.715Z,73.90
2022-12-09T22:51:29.798Z,74.00
2022-12-09T22:56:33.469Z,74.00
2022-12-09T23:01:38.457Z,73.90
2022-12-09T23:06:44.017Z,74.10
2022-12-09T23:11:48.210Z,74.00
2022-12-09T23:16:51.624Z,74.20
2022-12-09T23:21:56.425Z,74.20
2022-12-09T23:26:59.888Z,74.40
2022-12-09T23:32:03.471Z,74.30
2022-12-09T23:37:08.237Z,74.40
2022-12-09T23:42:11.613Z,74.40
2022-12-09T23:47:15.215Z,74.70
2022-12-09T23:52:20.002Z,74.60
2022-12-09T23:57:23.418Z,74.80
